Time;durP1;ratioP1;P1;durP2;ratioP2;P2;SDS_P1;SDS_P2;PMS_P1;PMS_P2;Temp;Humidity;BMP_temperature;BMP_pressure;BME280_temperature;BME280_humidity;BME280_pressure;Samples;Min_cycle;Max_cycle;Signal;HPM_P1;HPM_P2
2023/11/25 00:01:32;;;;;;;16.13;2.50;;;22.50;76.70;;;;;;5036580;28;20114;-60
2023/11/25 00:03:59;;;;;;;8.15;2.35;;;22.30;76.80;;;;;;5033568;28;20034;-60
2023/11/25 00:06:27;;;;;;;6.78;1.42;;;22.10;76.80;;;;;;5034174;28;20411;-59
2023/11/25 00:08:54;;;;;;;6.55;1.90;;;22.00;77.30;;;;;;5035590;28;20400;-60
2023/11/25 00:11:20;;;;;;;11.20;1.65;;;21.90;77.80;;;;;;5034858;28;20398;-63
2023/11/25 00:13:47;;;;;;;11.00;2.40;;;21.80;78.30;;;;;;5034689;28;20045;-63
2023/11/25 00:16:13;;;;;;;16.25;4.00;;;21.70;78.60;;;;;;5034908;28;20047;-57
2023/11/25 00:18:40;;;;;;;12.18;2.28;;;21.60;78.70;;;;;;5035083;28;20075;-57
2023/11/25 00:21:06;;;;;;;9.02;1.80;;;21.50;79.20;;;;;;5036304;28;20055;-58
2023/11/25 00:23:33;;;;;;;15.70;2.10;;;21.40;79.70;;;;;;5035387;28;20060;-57
2023/11/25 00:25:59;;;;;;;9.40;1.80;;;21.30;79.80;;;;;;5033506;28;20052;-57
2023/11/25 00:28:26;;;;;;;19.52;1.95;;;21.20;79.50;;;;;;5032365;28;20444;-60
2023/11/25 00:30:52;;;;;;;16.58;1.92;;;21.10;78.90;;;;;;5037323;28;20042;-64
2023/11/25 00:33:19;;;;;;;11.32;1.95;;;21.00;79.20;;;;;;5036221;28;20083;-66
2023/11/25 00:35:45;;;;;;;23.25;2.20;;;20.90;79.60;;;;;;5034289;28;20128;-60
2023/11/25 00:38:12;;;;;;;13.80;2.30;;;20.80;80.00;;;;;;5035983;28;20121;-68
2023/11/25 00:40:39;;;;;;;14.27;2.08;;;20.70;80.30;;;;;;5034094;28;20408;-59
2023/11/25 00:43:06;;;;;;;16.55;2.42;;;20.60;80.30;;;;;;5034029;28;20086;-63
2023/11/25 00:45:32;;;;;;;14.75;2.70;;;20.50;80.60;;;;;;5034995;28;20444;-62
2023/11/25 00:47:59;;;;;;;10.75;3.90;;;20.50;81.00;;;;;;5033796;28;20046;-60
2023/11/25 00:50:25;;;;;;;16.48;4.20;;;20.40;81.20;;;;;;5034739;28;20111;-67
2023/11/25 00:52:52;;;;;;;12.40;3.88;;;20.30;81.60;;;;;;5031844;28;20059;-57
2023/11/25 00:55:18;;;;;;;8.48;4.47;;;20.30;82.30;;;;;;5034172;28;20499;-56
2023/11/25 00:57:45;;;;;;;13.43;4.28;;;20.20;82.60;;;;;;5032461;28;20803;-57
2023/11/25 01:00:15;;;;;;;16.52;5.03;;;20.10;83.10;;;;;;5032671;28;20054;-63
2023/11/25 01:02:43;;;;;;;13.00;4.00;;;20.10;83.80;;;;;;5032228;28;20146;-66
2023/11/25 01:05:10;;;;;;;12.48;3.45;;;20.00;84.10;;;;;;5028967;28;20039;-60
2023/11/25 01:07:37;;;;;;;15.82;3.47;;;20.00;84.70;;;;;;5033959;28;20111;-61
2023/11/25 01:10:04;;;;;;;13.45;4.07;;;20.00;85.10;;;;;;5033014;28;20444;-62
2023/11/25 01:12:33;;;;;;;20.17;5.47;;;19.90;85.30;;;;;;5030568;28;20393;-66
2023/11/25 01:15:00;;;;;;;10.23;3.55;;;19.80;85.40;;;;;;5033203;28;20058;-66
2023/11/25 01:17:26;;;;;;;9.27;3.22;;;19.80;85.60;;;;;;5032466;28;20244;-58
2023/11/25 01:19:53;;;;;;;9.95;3.35;;;19.70;86.10;;;;;;5031858;28;20047;-64
2023/11/25 01:22:19;;;;;;;12.43;2.40;;;19.60;85.20;;;;;;5033623;28;20063;-60
2023/11/25 01:24:47;;;;;;;7.28;2.20;;;19.60;85.10;;;;;;5033918;28;20054;-58
2023/11/25 01:27:14;;;;;;;10.52;2.85;;;19.60;85.10;;;;;;5031909;28;20408;-57
2023/11/25 01:29:40;;;;;;;12.18;2.20;;;19.60;85.20;;;;;;5033102;28;20058;-56
2023/11/25 01:32:07;;;;;;;12.45;3.60;;;19.50;85.30;;;;;;5034470;28;20086;-59
2023/11/25 01:34:35;;;;;;;20.48;5.35;;;19.50;85.10;;;;;;5033229;28;20082;-61
2023/11/25 01:37:01;;;;;;;10.77;3.95;;;19.40;85.20;;;;;;5030658;28;20519;-59
2023/11/25 01:39:30;;;;;;;12.70;3.75;;;19.40;85.30;;;;;;5033611;28;20134;-62
2023/11/25 01:41:56;;;;;;;10.65;2.75;;;19.40;85.10;;;;;;5035779;28;20150;-65
2023/11/25 01:44:22;;;;;;;8.45;3.15;;;19.30;84.90;;;;;;5031602;28;20046;-61
2023/11/25 01:46:51;;;;;;;11.48;2.83;;;19.30;84.50;;;;;;5032116;28;20413;-61
2023/11/25 01:49:21;;;;;;;7.60;2.45;;;19.30;84.20;;;;;;5036193;28;20512;-59
2023/11/25 01:51:48;;;;;;;8.00;2.83;;;19.30;83.50;;;;;;5032034;28;20125;-58
2023/11/25 01:54:16;;;;;;;14.30;2.90;;;19.20;83.30;;;;;;5033685;28;20531;-60
2023/11/25 01:56:47;;;;;;;11.93;3.15;;;19.30;83.30;;;;;;5035363;28;20424;-61
2023/11/25 01:59:16;;;;;;;9.13;2.53;;;19.20;82.90;;;;;;5031130;28;20050;-62
2023/11/25 02:01:46;;;;;;;9.45;2.78;;;19.20;83.10;;;;;;5033901;28;20075;-60
2023/11/25 02:04:13;;;;;;;8.88;2.63;;;19.20;83.10;;;;;;5032709;28;20462;-61
2023/11/25 02:06:40;;;;;;;9.73;3.08;;;19.20;83.10;;;;;;5034714;28;20068;-61
2023/11/25 02:09:06;;;;;;;10.18;3.17;;;19.10;83.00;;;;;;5032982;28;20048;-59
2023/11/25 02:11:52;;;;;;;7.90;2.80;;;19.10;83.30;;;;;;5032847;28;20482;-56
2023/11/25 02:14:18;;;;;;;8.45;3.15;;;19.10;83.20;;;;;;5033550;28;20054;-59
2023/11/25 02:16:45;;;;;;;11.70;3.42;;;19.10;83.20;;;;;;5035056;28;20509;-59
2023/11/25 02:19:12;;;;;;;11.68;2.90;;;19.00;83.30;;;;;;5033167;28;20064;-61
2023/11/25 02:21:42;;;;;;;10.35;3.45;;;19.00;83.30;;;;;;5032311;28;20486;-59
2023/11/25 02:24:09;;;;;;;10.77;3.03;;;19.00;83.50;;;;;;5035408;28;20135;-61
2023/11/25 02:26:35;;;;;;;11.48;3.30;;;19.00;83.50;;;;;;5034105;28;20055;-63
2023/11/25 02:29:01;;;;;;;14.15;3.90;;;19.00;83.40;;;;;;5033618;28;20149;-61
2023/11/25 02:31:28;;;;;;;11.77;3.45;;;19.00;83.50;;;;;;5034094;28;20499;-63
2023/11/25 02:33:55;;;;;;;12.73;3.22;;;19.00;83.70;;;;;;5034132;28;20588;-61
2023/11/25 02:36:23;;;;;;;9.07;3.40;;;19.00;83.80;;;;;;5032490;28;20473;-63
2023/11/25 02:38:50;;;;;;;12.93;2.90;;;18.90;83.90;;;;;;5032444;28;20054;-62
2023/11/25 02:41:18;;;;;;;14.65;3.55;;;18.90;84.30;;;;;;5032014;28;20092;-61
2023/11/25 02:43:46;;;;;;;10.30;3.00;;;18.90;84.60;;;;;;5031938;28;20533;-62
2023/11/25 02:46:12;;;;;;;10.38;4.22;;;18.80;85.00;;;;;;5035565;28;20054;-64
2023/11/25 02:48:39;;;;;;;11.60;3.70;;;18.80;85.60;;;;;;5030402;28;20140;-61
2023/11/25 02:51:08;;;;;;;11.55;3.72;;;18.80;85.90;;;;;;5033644;28;20057;-60
2023/11/25 02:53:35;;;;;;;10.30;3.13;;;18.70;86.00;;;;;;5033968;28;20049;-60
2023/11/25 02:56:01;;;;;;;10.63;3.22;;;18.80;86.50;;;;;;5035776;28;20166;-60
2023/11/25 02:58:28;;;;;;;9.85;3.03;;;18.70;86.50;;;;;;5031582;28;20050;-56
2023/11/25 03:01:01;;;;;;;18.08;3.60;;;18.70;86.60;;;;;;5032802;28;20076;-58
2023/11/25 03:03:28;;;;;;;8.52;4.00;;;18.80;86.90;;;;;;5032312;28;20050;-54
2023/11/25 03:05:55;;;;;;;23.02;17.98;;;18.70;86.90;;;;;;5035565;28;20045;-57
2023/11/25 03:08:22;;;;;;;11.75;3.28;;;18.70;87.20;;;;;;5034797;28;20048;-60
2023/11/25 03:10:50;;;;;;;8.40;3.30;;;18.70;87.40;;;;;;5033466;28;20187;-59
2023/11/25 03:13:17;;;;;;;18.05;4.43;;;18.70;87.40;;;;;;5031885;28;20125;-56
2023/11/25 03:15:44;;;;;;;10.32;3.53;;;18.70;87.70;;;;;;5032416;28;20050;-57
2023/11/25 03:18:10;;;;;;;10.77;4.72;;;18.70;87.90;;;;;;5035628;28;20215;-59
2023/11/25 03:20:39;;;;;;;13.30;4.20;;;18.70;88.20;;;;;;5035758;28;20058;-59
2023/11/25 03:23:09;;;;;;;11.00;4.18;;;18.70;88.60;;;;;;5036548;28;20140;-56
2023/11/25 03:25:36;;;;;;;6.72;2.72;;;18.70;88.70;;;;;;5040220;28;20469;-61
2023/11/25 03:28:04;;;;;;;10.85;3.25;;;18.60;89.10;;;;;;5037014;28;20046;-61
2023/11/25 03:30:31;;;;;;;9.13;3.17;;;18.60;90.00;;;;;;5040379;28;20248;-59
2023/11/25 03:32:58;;;;;;;12.88;2.80;;;18.60;89.50;;;;;;5039996;28;20097;-59
2023/11/25 03:35:24;;;;;;;14.05;3.33;;;18.60;89.80;;;;;;5036067;28;20129;-61
2023/11/25 03:37:51;;;;;;;9.55;3.30;;;18.60;89.90;;;;;;5037818;28;20053;-59
2023/11/25 03:40:17;;;;;;;10.07;3.30;;;18.60;90.00;;;;;;5039162;28;20054;-61
2023/11/25 03:42:44;;;;;;;10.65;3.13;;;18.60;89.90;;;;;;5036434;28;20530;-62
2023/11/25 03:45:14;;;;;;;10.82;3.95;;;18.60;90.00;;;;;;5037476;28;20078;-60
2023/11/25 03:47:43;;;;;;;9.02;3.42;;;18.60;90.10;;;;;;5036872;28;20508;-58
2023/11/25 03:50:15;;;;;;;14.88;3.88;;;18.60;90.10;;;;;;5035481;28;20073;-58
2023/11/25 03:52:43;;;;;;;7.13;3.20;;;18.60;90.20;;;;;;5036494;28;20084;-59
2023/11/25 03:55:10;;;;;;;13.38;4.03;;;18.60;90.20;;;;;;5037278;28;20060;-61
2023/11/25 03:57:38;;;;;;;12.40;3.80;;;18.50;90.30;;;;;;5034473;28;20046;-56
2023/11/25 04:00:15;;;;;;;13.60;3.60;;;18.60;90.30;;;;;;5038069;28;20046;-58
2023/11/25 04:02:46;;;;;;;9.60;4.22;;;18.50;90.20;;;;;;5036076;28;20545;-57
2023/11/25 04:05:13;;;;;;;16.20;4.40;;;18.50;90.20;;;;;;5037120;28;20058;-59
2023/11/25 04:07:40;;;;;;;17.05;5.15;;;18.50;90.10;;;;;;5037227;28;20053;-56
2023/11/25 04:10:17;;;;;;;13.20;6.15;;;18.50;90.20;;;;;;5038063;28;20050;-57
2023/11/25 04:12:48;;;;;;;12.68;5.68;;;18.50;90.10;;;;;;5033696;28;20051;-58
2023/11/25 04:15:19;;;;;;;10.98;6.00;;;18.50;90.10;;;;;;5035288;28;20529;-57
2023/11/25 04:17:46;;;;;;;12.43;5.32;;;18.50;90.10;;;;;;5035572;28;20403;-56
2023/11/25 04:20:13;;;;;;;17.98;6.05;;;18.50;90.10;;;;;;5039565;28;20522;-57
2023/11/25 04:22:48;;;;;;;13.05;4.95;;;18.50;90.00;;;;;;5036683;28;20152;-56
2023/11/25 04:25:15;;;;;;;11.57;4.07;;;18.50;90.10;;;;;;5035855;28;20067;-57
2023/11/25 04:27:43;;;;;;;11.23;3.95;;;18.50;90.00;;;;;;5034577;28;20128;-58
2023/11/25 04:30:11;;;;;;;11.10;4.00;;;18.50;90.10;;;;;;5036518;28;20036;-57
2023/11/25 04:32:42;;;;;;;10.32;4.47;;;18.50;90.20;;;;;;5032954;28;20207;-58
2023/11/25 04:35:10;;;;;;;11.85;3.50;;;18.40;90.30;;;;;;5036852;28;20429;-59
2023/11/25 04:37:37;;;;;;;9.93;4.45;;;18.40;90.30;;;;;;5034791;28;20045;-60
2023/11/25 04:40:08;;;;;;;16.15;5.00;;;18.40;90.20;;;;;;5033843;28;20043;-55
2023/11/25 04:42:35;;;;;;;13.43;5.55;;;18.40;90.40;;;;;;5033373;28;20087;-57
2023/11/25 04:45:03;;;;;;;15.30;6.07;;;18.40;90.40;;;;;;5036577;28;20566;-60
2023/11/25 04:47:29;;;;;;;15.05;5.40;;;18.30;90.50;;;;;;5035868;28;20136;-57
2023/11/25 04:49:56;;;;;;;13.40;5.88;;;18.30;90.40;;;;;;5037351;28;20054;-57
2023/11/25 04:52:22;;;;;;;18.92;5.63;;;18.30;90.40;;;;;;5036101;28;20527;-57
2023/11/25 04:54:50;;;;;;;15.13;6.55;;;18.30;90.50;;;;;;5035421;28;20062;-56
2023/11/25 04:57:16;;;;;;;14.70;6.22;;;18.30;90.60;;;;;;5036375;28;20060;-58
2023/11/25 04:59:43;;;;;;;13.07;5.97;;;18.20;90.70;;;;;;5035786;28;20046;-59
2023/11/25 05:02:10;;;;;;;17.23;5.63;;;18.20;90.70;;;;;;5032713;28;20171;-57
2023/11/25 05:04:36;;;;;;;20.42;7.68;;;18.10;90.80;;;;;;5037099;28;20049;-56
2023/11/25 05:07:04;;;;;;;18.00;8.77;;;18.10;90.90;;;;;;5033643;28;20417;-57
2023/11/25 05:09:31;;;;;;;18.13;8.40;;;18.00;90.80;;;;;;5036280;28;20509;-60
2023/11/25 05:11:59;;;;;;;14.73;6.35;;;18.00;90.80;;;;;;5034819;28;20053;-56
2023/11/25 05:14:26;;;;;;;18.33;7.55;;;18.00;90.80;;;;;;5034760;28;20053;-58
2023/11/25 05:16:53;;;;;;;19.23;8.07;;;17.90;90.80;;;;;;5034907;28;20400;-64
2023/11/25 05:19:19;;;;;;;20.60;8.15;;;17.90;91.00;;;;;;5036004;28;20066;-58
2023/11/25 05:21:46;;;;;;;15.63;8.80;;;17.80;91.10;;;;;;5034827;28;20065;-57
2023/11/25 05:24:12;;;;;;;21.00;10.30;;;17.80;91.10;;;;;;5036437;28;20144;-60
2023/11/25 05:26:39;;;;;;;24.60;10.60;;;17.80;91.30;;;;;;5036253;28;20042;-57
2023/11/25 05:29:05;;;;;;;24.27;10.43;;;17.70;91.20;;;;;;5034426;28;20098;-56
2023/11/25 05:31:35;;;;;;;14.48;9.45;;;17.70;91.40;;;;;;5035830;28;20061;-57
2023/11/25 05:34:03;;;;;;;17.75;9.88;;;17.60;91.50;;;;;;5033145;28;20087;-56
2023/11/25 05:36:32;;;;;;;23.65;11.07;;;17.60;91.70;;;;;;5035965;28;20111;-59
2023/11/25 05:38:59;;;;;;;20.40;10.50;;;17.50;92.00;;;;;;5035550;28;20077;-58
2023/11/25 05:41:29;;;;;;;22.00;11.48;;;17.40;92.30;;;;;;5034628;28;20110;-59
2023/11/25 05:43:57;;;;;;;20.77;10.95;;;17.40;92.50;;;;;;5033781;28;20050;-57
2023/11/25 05:46:24;;;;;;;23.50;9.90;;;17.30;92.70;;;;;;5036837;28;20149;-59
2023/11/25 05:48:54;;;;;;;21.27;10.25;;;17.20;92.80;;;;;;5034419;28;20045;-61
2023/11/25 05:51:21;;;;;;;22.45;10.57;;;17.10;93.10;;;;;;5035245;28;20069;-60
2023/11/25 05:53:47;;;;;;;19.67;8.35;;;17.10;93.10;;;;;;5036432;28;20049;-61
2023/11/25 05:56:14;;;;;;;30.02;21.42;;;17.10;92.70;;;;;;5033700;28;20052;-59
2023/11/25 05:58:40;;;;;;;14.10;7.20;;;17.00;92.50;;;;;;5035455;28;20104;-60
2023/11/25 06:01:07;;;;;;;21.63;12.80;;;17.10;92.50;;;;;;5034357;28;20504;-61
2023/11/25 06:03:33;;;;;;;25.27;12.55;;;17.10;92.00;;;;;;5033690;28;20053;-60
2023/11/25 06:06:00;;;;;;;23.67;11.70;;;17.10;92.10;;;;;;5034189;28;20506;-63
2023/11/25 06:08:27;;;;;;;22.98;9.55;;;17.20;92.20;;;;;;5037310;28;20503;-61
2023/11/25 06:10:56;;;;;;;19.25;8.65;;;17.20;92.00;;;;;;5032147;28;20392;-59
2023/11/25 06:13:22;;;;;;;20.20;6.88;;;17.30;92.00;;;;;;5030538;28;20524;-59
2023/11/25 06:15:51;;;;;;;11.48;5.47;;;17.30;92.10;;;;;;5033807;28;20061;-61
2023/11/25 06:18:20;;;;;;;11.77;4.10;;;17.30;92.20;;;;;;5030071;28;20065;-58
2023/11/25 06:20:47;;;;;;;9.02;3.90;;;17.20;92.00;;;;;;5034769;28;20085;-61
2023/11/25 06:23:14;;;;;;;10.60;3.22;;;17.30;92.30;;;;;;5032772;28;20069;-60
2023/11/25 06:25:42;;;;;;;8.65;2.92;;;17.20;91.80;;;;;;5033733;28;20134;-60
2023/11/25 06:28:12;;;;;;;9.85;2.70;;;17.20;91.70;;;;;;5032715;28;20045;-60
2023/11/25 06:30:39;;;;;;;8.48;2.47;;;17.20;91.60;;;;;;5034168;28;20475;-61
2023/11/25 06:33:06;;;;;;;9.52;2.58;;;17.20;91.70;;;;;;5035073;28;20085;-59
2023/11/25 06:35:33;;;;;;;6.75;1.75;;;17.20;91.90;;;;;;5033310;28;20045;-61
2023/11/25 06:38:00;;;;;;;9.82;2.40;;;17.10;91.90;;;;;;5031832;28;20061;-61
2023/11/25 06:40:26;;;;;;;5.32;2.10;;;17.10;92.00;;;;;;5036034;28;20195;-60
2023/11/25 06:42:53;;;;;;;6.57;2.13;;;17.10;92.00;;;;;;5033054;28;20432;-59
2023/11/25 06:45:21;;;;;;;4.90;2.28;;;17.10;92.20;;;;;;5033032;28;20053;-60
2023/11/25 06:47:50;;;;;;;12.00;3.08;;;17.00;92.30;;;;;;5033541;28;20046;-59
2023/11/25 06:50:16;;;;;;;7.57;2.40;;;17.00;92.30;;;;;;5033400;28;20052;-61
2023/11/25 06:52:43;;;;;;;6.93;2.38;;;16.90;92.20;;;;;;5033026;28;20389;-59
2023/11/25 06:55:09;;;;;;;10.43;2.88;;;16.90;92.30;;;;;;5033818;28;20049;-60
2023/11/25 06:57:36;;;;;;;10.27;2.20;;;16.90;92.20;;;;;;5033719;28;20042;-61
2023/11/25 07:00:03;;;;;;;5.65;2.30;;;16.90;92.30;;;;;;5032713;28;20100;-60
2023/11/25 07:02:29;;;;;;;4.90;1.98;;;16.90;92.20;;;;;;5032229;28;20150;-61
2023/11/25 07:04:56;;;;;;;14.07;2.22;;;16.80;92.20;;;;;;5032562;28;20045;-61
2023/11/25 07:07:22;;;;;;;4.38;1.98;;;16.90;92.00;;;;;;5032919;28;20543;-63
2023/11/25 07:09:49;;;;;;;10.57;2.20;;;16.80;92.10;;;;;;5035172;28;20060;-60
2023/11/25 07:12:15;;;;;;;8.23;2.35;;;16.80;91.90;;;;;;5033857;28;20050;-61
2023/11/25 07:14:42;;;;;;;8.68;2.08;;;16.80;91.90;;;;;;5032641;28;20051;-60
2023/11/25 07:17:11;;;;;;;8.13;2.28;;;16.70;91.60;;;;;;5032003;28;20131;-60
2023/11/25 07:19:41;;;;;;;8.00;2.50;;;16.80;91.70;;;;;;5030545;28;20091;-61
2023/11/25 07:22:08;;;;;;;9.10;2.80;;;16.70;91.50;;;;;;5030725;28;20066;-61
2023/11/25 07:24:39;;;;;;;8.40;2.83;;;16.70;91.40;;;;;;5032672;28;20097;-60
2023/11/25 07:27:10;;;;;;;5.13;2.40;;;16.70;91.20;;;;;;5033662;28;20127;-60
2023/11/25 07:29:37;;;;;;;9.27;2.60;;;16.70;91.10;;;;;;5031191;28;20043;-61
2023/11/25 07:32:04;;;;;;;6.25;2.30;;;16.70;91.00;;;;;;5030828;28;20160;-58
2023/11/25 07:34:31;;;;;;;7.65;2.60;;;16.70;90.90;;;;;;5034769;28;20427;-60
2023/11/25 07:36:59;;;;;;;7.95;2.58;;;16.70;90.60;;;;;;5034946;28;20488;-61
2023/11/25 07:39:29;;;;;;;6.38;2.35;;;16.80;90.80;;;;;;5031118;28;20066;-59
2023/11/25 07:41:57;;;;;;;13.57;3.55;;;16.70;90.70;;;;;;5031599;28;20066;-59
2023/11/25 07:44:26;;;;;;;11.13;2.72;;;16.80;90.80;;;;;;5029440;28;20517;-58
2023/11/25 07:46:53;;;;;;;10.77;2.80;;;16.80;90.70;;;;;;5031503;28;20464;-60
2023/11/25 07:49:20;;;;;;;11.75;2.88;;;16.70;91.40;;;;;;5031783;28;20108;-59
2023/11/25 07:51:48;;;;;;;6.60;2.55;;;16.70;91.90;;;;;;5032229;28;20449;-59
2023/11/25 07:54:15;;;;;;;8.10;2.90;;;16.60;92.30;;;;;;5034057;28;20049;-60
2023/11/25 07:56:41;;;;;;;14.55;2.80;;;16.50;92.60;;;;;;5032623;28;20448;-60
2023/11/25 07:59:09;;;;;;;12.82;3.63;;;16.50;92.80;;;;;;5031356;28;20129;-60
2023/11/25 08:01:36;;;;;;;10.23;3.05;;;16.40;93.20;;;;;;5034238;28;20060;-61
2023/11/25 08:04:04;;;;;;;14.45;3.28;;;16.30;93.50;;;;;;5033097;28;20394;-61
2023/11/25 08:06:30;;;;;;;13.80;3.67;;;16.20;93.60;;;;;;5034659;28;20044;-59
2023/11/25 08:08:57;;;;;;;10.63;3.08;;;16.10;93.90;;;;;;5036805;28;20108;-60
2023/11/25 08:11:29;;;;;;;13.88;3.47;;;16.10;94.00;;;;;;5036801;28;20058;-60
2023/11/25 08:13:55;;;;;;;13.15;3.78;;;16.00;94.10;;;;;;5031367;28;20049;-59
2023/11/25 08:16:23;;;;;;;15.93;3.63;;;16.00;94.40;;;;;;5036296;28;20089;-59
2023/11/25 08:18:49;;;;;;;15.98;3.28;;;15.90;94.30;;;;;;5034862;28;20853;-61
2023/11/25 08:21:16;;;;;;;10.65;3.20;;;15.90;94.30;;;;;;5034102;28;20065;-61
2023/11/25 08:23:43;;;;;;;10.38;2.97;;;15.90;94.50;;;;;;5037294;28;20050;-62
2023/11/25 08:26:20;;;;;;;12.82;2.95;;;15.80;94.50;;;;;;5034059;28;20067;-60
2023/11/25 08:28:46;;;;;;;12.88;2.80;;;15.80;94.70;;;;;;5035183;28;20499;-59
2023/11/25 08:31:13;;;;;;;10.68;2.70;;;15.80;94.80;;;;;;5034536;28;20056;-60
2023/11/25 08:33:42;;;;;;;15.43;2.97;;;15.80;94.90;;;;;;5033602;28;20103;-60
2023/11/25 08:36:11;;;;;;;6.60;2.63;;;15.70;94.90;;;;;;5038233;28;20078;-60
2023/11/25 08:38:38;;;;;;;14.43;2.65;;;15.80;94.90;;;;;;5036866;28;20124;-59
2023/11/25 08:41:08;;;;;;;11.57;2.53;;;15.70;94.80;;;;;;5037064;28;20075;-60
2023/11/25 08:43:39;;;;;;;7.35;2.67;;;15.70;94.70;;;;;;5031906;28;20078;-61
2023/11/25 08:46:06;;;;;;;9.82;2.75;;;15.60;94.70;;;;;;5037458;28;20144;-60
2023/11/25 08:48:33;;;;;;;8.43;3.08;;;15.60;94.60;;;;;;5035564;28;20059;-60
2023/11/25 08:51:00;;;;;;;10.38;3.28;;;15.70;94.60;;;;;;5032953;28;20051;-59
2023/11/25 08:53:29;;;;;;;11.30;2.88;;;15.60;94.10;;;;;;5038092;28;20080;-61
2023/11/25 08:55:59;;;;;;;8.73;3.20;;;15.60;93.80;;;;;;5037995;28;20052;-60
2023/11/25 08:58:26;;;;;;;11.60;3.13;;;15.70;93.20;;;;;;5035741;28;20054;-61
2023/11/25 09:00:53;;;;;;;10.55;3.75;;;15.70;93.30;;;;;;5033556;28;20052;-60
2023/11/25 09:03:20;;;;;;;15.07;3.10;;;15.80;93.30;;;;;;5034643;28;20071;-59
2023/11/25 09:05:47;;;;;;;10.38;2.92;;;15.70;93.50;;;;;;5035564;28;20517;-60
2023/11/25 09:08:16;;;;;;;6.13;2.42;;;15.70;93.00;;;;;;5034620;28;20119;-60
2023/11/25 09:10:43;;;;;;;6.75;2.35;;;15.80;93.10;;;;;;5037972;28;20053;-61
2023/11/25 09:13:10;;;;;;;5.47;2.00;;;15.80;92.80;;;;;;5035996;28;20077;-60
2023/11/25 09:15:37;;;;;;;6.45;1.95;;;15.70;92.50;;;;;;5033961;28;20065;-60
2023/11/25 09:18:06;;;;;;;8.77;2.28;;;15.80;92.50;;;;;;5036840;28;20066;-60
2023/11/25 09:20:34;;;;;;;11.70;2.63;;;15.80;92.50;;;;;;5034260;28;20063;-61
2023/11/25 09:23:01;;;;;;;10.18;2.55;;;15.80;92.40;;;;;;5034615;28;20075;-61
2023/11/25 09:25:29;;;;;;;7.25;2.30;;;15.80;92.20;;;;;;5035553;28;20081;-62
2023/11/25 09:27:55;;;;;;;12.15;2.75;;;15.80;92.00;;;;;;5036231;28;20132;-60
2023/11/25 09:30:23;;;;;;;11.77;2.03;;;15.90;92.20;;;;;;5034632;28;20088;-60
2023/11/25 09:32:49;;;;;;;7.80;2.70;;;15.80;92.00;;;;;;5038063;28;20113;-61
2023/11/25 09:35:16;;;;;;;9.48;2.40;;;15.90;92.10;;;;;;5035850;28;20058;-60
2023/11/25 09:37:43;;;;;;;8.93;2.80;;;15.90;91.90;;;;;;5033099;28;20087;-62
2023/11/25 09:40:14;;;;;;;9.55;2.38;;;15.90;92.00;;;;;;5032693;28;20136;-61
2023/11/25 09:42:45;;;;;;;7.05;2.22;;;15.90;92.00;;;;;;5035204;28;20121;-60
2023/11/25 09:45:12;;;;;;;11.88;2.58;;;15.90;91.90;;;;;;5034780;28;20152;-59
2023/11/25 09:47:40;;;;;;;8.75;2.42;;;15.90;91.90;;;;;;5031974;28;20098;-58
2023/11/25 09:50:10;;;;;;;10.52;2.58;;;16.00;91.90;;;;;;5033771;28;20049;-59
2023/11/25 09:52:53;;;;;;;7.85;2.95;;;16.00;91.90;;;;;;5035386;28;20134;-61
2023/11/25 09:55:22;;;;;;;10.90;3.25;;;16.00;91.80;;;;;;5033854;28;20082;-60
2023/11/25 09:57:52;;;;;;;10.48;3.10;;;16.00;91.70;;;;;;5032090;28;20186;-61
2023/11/25 10:00:21;;;;;;;8.82;2.83;;;16.00;91.70;;;;;;5036180;28;20053;-60
2023/11/25 10:02:55;;;;;;;13.32;3.20;;;16.00;91.90;;;;;;5034074;28;20072;-60
2023/11/25 10:05:22;;;;;;;11.75;2.30;;;16.00;92.00;;;;;;5032606;28;20140;-59
2023/11/25 10:07:48;;;;;;;11.63;2.97;;;16.00;92.10;;;;;;5033947;28;20055;-61
2023/11/25 10:10:23;;;;;;;9.27;2.50;;;16.10;92.30;;;;;;5036998;28;20057;-60
2023/11/25 10:12:50;;;;;;;9.13;2.55;;;16.10;92.60;;;;;;5033266;28;20070;-59
2023/11/25 10:15:17;;;;;;;11.15;2.78;;;16.10;92.70;;;;;;5033173;28;20078;-61
2023/11/25 10:17:48;;;;;;;9.75;2.20;;;16.10;93.10;;;;;;5034940;28;20067;-61
2023/11/25 10:20:19;;;;;;;10.05;2.88;;;16.10;93.50;;;;;;5032467;28;20058;-61
2023/11/25 10:22:58;;;;;;;16.60;3.10;;;16.10;93.90;;;;;;5034746;28;20098;-61
2023/11/25 10:25:27;;;;;;;10.13;3.03;;;16.10;94.20;;;;;;5034593;28;20042;-58
2023/11/25 10:27:55;;;;;;;22.63;3.25;;;16.10;94.60;;;;;;5031897;28;20057;-61
2023/11/25 10:30:23;;;;;;;10.27;2.30;;;16.10;95.00;;;;;;5036432;28;20050;-60
2023/11/25 10:32:52;;;;;;;14.50;3.08;;;16.10;95.20;;;;;;5035078;28;20220;-60
2023/11/25 10:35:18;;;;;;;11.05;2.97;;;16.10;95.40;;;;;;5035019;28;20064;-60
2023/11/25 10:37:46;;;;;;;17.10;3.67;;;16.10;95.60;;;;;;5033024;28;20057;-60
2023/11/25 10:40:16;;;;;;;14.10;3.08;;;16.10;95.90;;;;;;5034446;28;20059;-59
2023/11/25 10:42:47;;;;;;;11.55;2.90;;;16.10;96.00;;;;;;5033887;28;20109;-61
2023/11/25 10:45:15;;;;;;;8.57;2.55;;;16.10;96.20;;;;;;5035071;28;20465;-60
2023/11/25 10:47:42;;;;;;;15.27;3.65;;;16.10;96.20;;;;;;5035652;28;20057;-59
2023/11/25 10:50:10;;;;;;;13.73;3.30;;;16.10;96.50;;;;;;5034996;28;20067;-61
2023/11/25 10:52:40;;;;;;;12.40;3.65;;;16.10;96.70;;;;;;5033400;28;20522;-61
2023/11/25 10:55:11;;;;;;;15.63;3.05;;;16.10;96.70;;;;;;5033936;28;20062;-60
2023/11/25 10:57:38;;;;;;;16.48;3.15;;;16.10;96.60;;;;;;5036306;28;20585;-60
2023/11/25 11:00:10;;;;;;;10.52;3.05;;;16.10;96.30;;;;;;5034097;28;20140;-61
2023/11/25 11:02:44;;;;;;;13.10;3.25;;;16.10;96.20;;;;;;5033648;28;20069;-61
2023/11/25 11:05:12;;;;;;;10.98;3.50;;;16.10;96.10;;;;;;5037350;28;20047;-60
2023/11/25 11:07:49;;;;;;;10.20;2.85;;;16.10;95.80;;;;;;5032509;28;20058;-60
2023/11/25 11:10:20;;;;;;;10.90;2.97;;;16.00;95.80;;;;;;5031488;28;20108;-59
2023/11/25 11:13:00;;;;;;;13.10;3.00;;;16.00;95.60;;;;;;5034559;28;20135;-62
2023/11/25 11:15:30;;;;;;;10.48;2.80;;;15.90;95.70;;;;;;5034013;28;20432;-60
2023/11/25 11:18:28;;;;;;;9.20;2.72;;;15.90;95.70;;;;;;5034238;28;20056;-61
2023/11/25 11:20:57;;;;;;;11.93;2.78;;;15.90;95.70;;;;;;5031241;28;20056;-61
2023/11/25 11:23:25;;;;;;;15.80;2.83;;;15.80;95.50;;;;;;5032919;28;20560;-61
2023/11/25 11:26:29;;;;;;;13.13;2.83;;;15.70;95.60;;;;;;5034784;28;20108;-61
2023/11/25 11:29:28;;;;;;;14.95;3.53;;;15.70;95.70;;;;;;5033121;28;20467;-60
2023/11/25 11:32:00;;;;;;;10.13;3.45;;;15.70;95.70;;;;;;5033964;28;20444;-60
2023/11/25 11:34:29;;;;;;;11.30;3.00;;;15.50;95.70;;;;;;5032556;28;20182;-60
2023/11/25 11:36:56;;;;;;;14.45;3.30;;;15.50;95.30;;;;;;5033900;28;20581;-61
2023/11/25 11:39:39;;;;;;;12.82;3.30;;;15.50;95.40;;;;;;5036316;28;20066;-61
2023/11/25 11:42:26;;;;;;;15.00;2.95;;;15.40;95.40;;;;;;5037611;28;20070;-61
2023/11/25 11:45:22;;;;;;;15.20;3.20;;;15.40;95.50;;;;;;5036239;28;20140;-60
2023/11/25 11:47:58;;;;;;;13.30;3.33;;;15.30;95.70;;;;;;5036553;28;20056;-61
2023/11/25 11:50:29;;;;;;;15.63;2.88;;;15.20;95.70;;;;;;5040902;28;20045;-60
2023/11/25 11:53:02;;;;;;;12.02;3.03;;;15.20;95.80;;;;;;5038812;28;20486;-61
2023/11/25 11:55:41;;;;;;;12.07;2.70;;;15.10;95.90;;;;;;5038991;28;20065;-61
2023/11/25 11:58:12;;;;;;;21.08;3.28;;;15.10;96.20;;;;;;5036371;28;20058;-62
2023/11/25 12:01:03;;;;;;;9.85;2.92;;;15.10;96.40;;;;;;5036812;28;20109;-60
2023/11/25 12:03:36;;;;;;;12.43;2.83;;;15.10;96.70;;;;;;5029607;28;20543;-60
2023/11/25 12:06:05;;;;;;;8.60;2.45;;;15.10;96.40;;;;;;5033193;28;20062;-59
2023/11/25 12:08:33;;;;;;;12.73;2.97;;;15.00;96.30;;;;;;5038443;28;20087;-60
2023/11/25 12:11:03;;;;;;;12.57;3.38;;;14.90;96.60;;;;;;5036960;28;20057;-59
2023/11/25 12:13:31;;;;;;;12.48;3.05;;;15.00;96.50;;;;;;5037501;28;20418;-61
2023/11/25 12:15:59;;;;;;;12.00;3.05;;;15.00;96.40;;;;;;5036777;28;20736;-62
2023/11/25 12:18:26;;;;;;;10.60;3.33;;;15.00;96.40;;;;;;5038477;28;20507;-61
2023/11/25 12:20:53;;;;;;;10.35;2.75;;;15.00;96.30;;;;;;5037207;28;20423;-61
2023/11/25 12:23:20;;;;;;;12.75;3.08;;;15.00;96.20;;;;;;5035422;28;20084;-60
2023/11/25 12:25:46;;;;;;;9.15;3.00;;;15.00;96.20;;;;;;5036855;28;20133;-61
2023/11/25 12:28:13;;;;;;;16.77;4.07;;;15.00;96.30;;;;;;5034860;28;20115;-61
2023/11/25 12:30:42;;;;;;;16.45;3.42;;;15.00;96.20;;;;;;5039521;28;20527;-60
2023/11/25 12:33:13;;;;;;;14.75;2.83;;;15.00;96.40;;;;;;5043390;28;20561;-60
2023/11/25 12:35:43;;;;;;;11.18;3.38;;;14.90;96.40;;;;;;5038246;28;20070;-61
2023/11/25 12:38:11;;;;;;;11.55;3.22;;;14.90;96.50;;;;;;5035554;28;20077;-61
2023/11/25 12:40:37;;;;;;;12.65;3.60;;;14.90;96.80;;;;;;5037693;28;20059;-61
2023/11/25 12:43:09;;;;;;;8.68;3.13;;;14.90;97.00;;;;;;5036752;28;20443;-60
2023/11/25 12:45:40;;;;;;;11.40;3.78;;;14.90;97.20;;;;;;5034997;28;20059;-60